createdAt,value
2022-09-21T00:01:41.126Z,10.66
2022-09-21T00:04:09.563Z,10.67
2022-09-21T00:06:38.518Z,10.62
2022-09-21T00:09:08.294Z,10.58
2022-09-21T00:11:37.294Z,10.58
2022-09-21T00:14:08.099Z,10.58
2022-09-21T00:16:38.228Z,10.58
2022-09-21T00:19:07.829Z,10.57
2022-09-21T00:21:38.194Z,10.57
2022-09-21T00:24:07.358Z,10.57
2022-09-21T00:26:35.928Z,10.54
2022-09-21T00:29:05.231Z,10.55
2022-09-21T00:31:34.001Z,10.54
2022-09-21T00:34:07.651Z,10.62
2022-09-21T00:36:36.103Z,10.66
2022-09-21T00:39:04.842Z,10.66
2022-09-21T00:41:35.340Z,10.65
2022-09-21T00:44:30.203Z,10.64
2022-09-21T00:47:03.180Z,10.61
2022-09-21T00:49:33.997Z,10.59
2022-09-21T00:52:05.451Z,10.50
2022-09-21T00:54:39.369Z,10.42
2022-09-21T00:57:08.669Z,10.38
2022-09-21T00:59:39.508Z,10.36
2022-09-21T01:02:08.470Z,10.34
2022-09-21T01:04:39.587Z,10.36
2022-09-21T01:07:12.908Z,10.25
2022-09-21T01:09:43.555Z,10.21
2022-09-21T01:12:27.615Z,10.26
2022-09-21T01:15:09.185Z,10.34
2022-09-21T01:17:46.367Z,10.35
2022-09-21T01:21:03.345Z,10.27
2022-09-21T01:23:46.812Z,10.14
2022-09-21T01:26:26.208Z,10.10
2022-09-21T01:29:13.631Z,10.09
2022-09-21T01:31:47.876Z,10.12
2022-09-21T01:34:32.093Z,10.17
2022-09-21T01:37:06.618Z,10.23
2022-09-21T01:39:37.077Z,10.28
2022-09-21T01:42:08.566Z,10.31
2022-09-21T01:44:41.543Z,10.28
2022-09-21T01:47:14.104Z,10.22
2022-09-21T01:49:47.319Z,10.12
2022-09-21T01:52:20.577Z,10.13
2022-09-21T01:54:53.037Z,10.13
2022-09-21T01:57:28.025Z,10.14
2022-09-21T02:00:00.000Z,10.17
2022-09-21T02:02:35.607Z,10.14
2022-09-21T02:05:05.827Z,10.10
2022-09-21T02:07:35.584Z,10.07
2022-09-21T02:10:05.266Z,10.08
2022-09-21T02:12:33.807Z,10.07
2022-09-21T02:15:04.706Z,10.04
2022-09-21T02:17:41.165Z,9.92
2022-09-21T02:20:18.508Z,9.82
2022-09-21T02:22:58.693Z,9.65
2022-09-21T02:25:37.056Z,9.55
2022-09-21T02:28:09.759Z,9.46
2022-09-21T02:30:42.386Z,9.38
2022-09-21T02:33:17.791Z,9.35
2022-09-21T02:35:51.069Z,9.31
2022-09-21T02:38:26.850Z,9.23
2022-09-21T02:41:03.878Z,9.18
2022-09-21T02:43:38.439Z,9.09
2022-09-21T02:46:11.717Z,9.00
2022-09-21T02:48:45.332Z,8.91
2022-09-21T02:51:18.563Z,9.02
2022-09-21T02:53:49.367Z,9.14
2022-09-21T02:56:18.665Z,9.19
2022-09-21T02:58:51.701Z,9.23
2022-09-21T03:01:23.709Z,9.22
2022-09-21T03:03:52.039Z,9.14
2022-09-21T03:06:20.526Z,9.10
2022-09-21T03:08:48.992Z,8.97
2022-09-21T03:11:18.164Z,8.83
2022-09-21T03:13:47.198Z,8.77
2022-09-21T03:16:16.496Z,8.70
2022-09-21T03:18:46.595Z,8.61
2022-09-21T03:21:15.264Z,8.63
2022-09-21T03:23:43.604Z,8.75
2022-09-21T03:26:12.265Z,8.81
2022-09-21T03:28:40.682Z,8.82
2022-09-21T03:31:09.126Z,8.81
2022-09-21T03:33:37.578Z,8.87
2022-09-21T03:36:07.826Z,8.95
2022-09-21T03:38:36.423Z,8.97
2022-09-21T03:41:04.875Z,8.96
2022-09-21T03:43:33.475Z,8.92
2022-09-21T03:46:01.825Z,8.87
2022-09-21T03:48:31.048Z,8.82
2022-09-21T03:50:59.497Z,8.77
2022-09-21T03:53:29.261Z,8.73
2022-09-21T03:55:58.855Z,8.78
2022-09-21T03:58:27.352Z,8.83
2022-09-21T04:00:55.744Z,8.90
2022-09-21T04:03:24.131Z,8.96
2022-09-21T04:05:52.472Z,9.03
2022-09-21T04:08:20.831Z,9.08
2022-09-21T04:10:50.762Z,9.15
2022-09-21T04:13:19.149Z,9.19
2022-09-21T04:15:47.539Z,9.19
2022-09-21T04:18:15.911Z,9.17
2022-09-21T04:20:44.216Z,9.16
2022-09-21T04:23:12.879Z,9.17
2022-09-21T04:25:41.944Z,9.22
2022-09-21T04:28:11.705Z,9.22
2022-09-21T04:30:40.338Z,9.20
2022-09-21T04:33:08.792Z,9.17
2022-09-21T04:35:37.399Z,9.08
2022-09-21T04:38:09.107Z,8.98
2022-09-21T04:40:39.141Z,8.94
2022-09-21T04:43:22.563Z,8.92
2022-09-21T04:45:51.826Z,8.93
2022-09-21T04:48:20.191Z,8.92
2022-09-21T04:50:50.478Z,8.92
2022-09-21T04:53:19.058Z,8.84
2022-09-21T04:55:47.578Z,8.76
2022-09-21T04:58:16.110Z,8.67
2022-09-21T05:00:45.811Z,8.58
2022-09-21T05:03:14.296Z,8.55
2022-09-21T05:05:48.091Z,8.51
2022-09-21T05:08:17.281Z,8.43
2022-09-21T05:10:44.837Z,8.33
2022-09-21T05:13:19.646Z,8.26
2022-09-21T05:15:49.572Z,8.27
2022-09-21T05:18:17.956Z,8.30
2022-09-21T05:20:46.433Z,8.31
2022-09-21T05:23:16.787Z,8.36
2022-09-21T05:25:45.251Z,8.39
2022-09-21T05:28:14.226Z,8.44
2022-09-21T05:30:56.248Z,8.41
2022-09-21T05:33:36.906Z,8.34
2022-09-21T05:36:18.244Z,8.35
2022-09-21T05:38:47.150Z,8.40
2022-09-21T05:41:15.943Z,8.51
2022-09-21T05:43:45.505Z,8.62
2022-09-21T05:46:21.113Z,8.67
2022-09-21T05:49:00.058Z,8.75
2022-09-21T05:51:36.524Z,8.82
2022-09-21T05:54:16.498Z,8.77
2022-09-21T05:56:50.045Z,8.71
2022-09-21T05:59:36.859Z,8.72
2022-09-21T06:02:16.103Z,8.76
2022-09-21T06:04:47.343Z,8.71
2022-09-21T06:07:17.431Z,8.60
2022-09-21T06:09:45.792Z,8.60
2022-09-21T06:12:14.684Z,8.58
2022-09-21T06:14:44.127Z,8.55
2022-09-21T06:17:13.351Z,8.58
2022-09-21T06:19:41.713Z,8.67
2022-09-21T06:22:11.471Z,8.78
2022-09-21T06:24:39.835Z,8.92
2022-09-21T06:27:08.210Z,8.98
2022-09-21T06:29:36.550Z,9.05
2022-09-21T06:32:06.219Z,9.10
2022-09-21T06:34:34.530Z,9.02
2022-09-21T06:37:03.176Z,9.02
2022-09-21T06:39:32.874Z,9.02
2022-09-21T06:42:02.207Z,9.02
2022-09-21T06:44:31.000Z,9.04
2022-09-21T06:46:59.306Z,9.14
2022-09-21T06:49:28.730Z,9.19
2022-09-21T06:51:57.321Z,9.23
2022-09-21T06:54:25.692Z,9.35
2022-09-21T06:56:59.831Z,9.40
2022-09-21T06:59:28.726Z,9.46
2022-09-21T07:01:58.523Z,9.55
2022-09-21T07:04:28.458Z,9.62
2022-09-21T07:06:57.740Z,9.65
2022-09-21T07:12:16.190Z,9.74
2022-09-21T07:14:45.643Z,9.83
2022-09-21T07:17:16.141Z,9.88
2022-09-21T07:19:44.487Z,9.93
2022-09-21T07:22:13.134Z,10.00
2022-09-21T07:24:41.448Z,10.07
2022-09-21T07:27:09.976Z,10.11
2022-09-21T07:29:39.706Z,10.10
2022-09-21T07:32:08.008Z,10.14
2022-09-21T07:34:37.908Z,10.20
2022-09-21T07:37:06.376Z,10.25
2022-09-21T07:39:35.577Z,10.30
2022-09-21T07:42:03.893Z,10.33
2022-09-21T07:44:32.280Z,10.34
2022-09-21T07:47:03.371Z,10.36
2022-09-21T07:49:31.783Z,10.39
2022-09-21T07:52:03.829Z,10.46
2022-09-21T07:54:34.508Z,10.50
2022-09-21T07:57:20.400Z,10.57
2022-09-21T07:59:48.946Z,10.63
2022-09-21T08:02:18.642Z,10.69
2022-09-21T08:04:47.145Z,10.80
2022-09-21T08:07:15.827Z,10.91
2022-09-21T08:09:44.397Z,10.99
2022-09-21T08:12:12.924Z,11.06
2022-09-21T08:14:41.658Z,11.09
2022-09-21T08:17:09.937Z,11.13
2022-09-21T08:19:39.648Z,11.18
2022-09-21T08:22:08.349Z,11.28
2022-09-21T08:24:37.654Z,11.34
2022-09-21T08:27:06.337Z,11.39
2022-09-21T08:29:36.215Z,11.44
2022-09-21T08:32:05.088Z,11.53
2022-09-21T08:34:33.411Z,11.63
2022-09-21T08:37:03.122Z,11.74
2022-09-21T08:39:31.549Z,11.83
2022-09-21T08:42:16.031Z,11.93
2022-09-21T08:44:49.526Z,12.01
2022-09-21T08:47:21.411Z,12.10
2022-09-21T08:49:54.486Z,12.18
2022-09-21T08:52:25.914Z,12.25
2022-09-21T08:54:57.753Z,12.30
2022-09-21T08:57:30.650Z,12.41
2022-09-21T09:00:01.569Z,12.53
2022-09-21T09:03:03.434Z,12.65
2022-09-21T09:05:45.862Z,12.65
2022-09-21T09:08:31.708Z,12.71
2022-09-21T09:11:15.551Z,12.87
2022-09-21T09:14:03.418Z,13.05
2022-09-21T09:16:41.454Z,13.20
2022-09-21T09:19:19.765Z,13.39
2022-09-21T09:21:48.118Z,13.55
2022-09-21T09:24:25.296Z,13.70
2022-09-21T09:26:57.931Z,13.84
2022-09-21T09:29:33.302Z,13.96
2022-09-21T09:32:02.870Z,14.11
2022-09-21T09:34:35.912Z,14.24
2022-09-21T09:37:12.206Z,14.34
2022-09-21T09:39:45.235Z,14.45
2022-09-21T09:42:29.516Z,14.54
2022-09-21T09:45:13.789Z,14.61
2022-09-21T09:47:54.437Z,14.62
2022-09-21T09:50:28.619Z,14.62
2022-09-21T09:53:04.977Z,14.59
2022-09-21T09:55:40.176Z,14.53
2022-09-21T09:58:18.244Z,14.52
2022-09-21T10:00:48.064Z,14.57
2022-09-21T10:03:19.387Z,14.64
2022-09-21T10:05:48.090Z,14.76
2022-09-21T10:08:43.106Z,14.94
2022-09-21T10:11:15.361Z,15.08
2022-09-21T10:13:45.099Z,15.18
2022-09-21T10:16:15.895Z,15.27
2022-09-21T10:18:48.611Z,15.18
2022-09-21T10:21:22.699Z,15.09
2022-09-21T10:23:55.095Z,14.99
2022-09-21T10:26:25.112Z,14.99
2022-09-21T10:28:58.987Z,15.06
2022-09-21T10:31:29.995Z,15.21
2022-09-21T10:34:13.714Z,15.36
2022-09-21T10:36:43.569Z,15.48
2022-09-21T10:39:26.844Z,15.58
2022-09-21T10:42:08.812Z,15.62
2022-09-21T10:44:42.382Z,15.65
2022-09-21T10:47:20.185Z,15.68
2022-09-21T10:49:51.370Z,15.74
2022-09-21T10:52:22.733Z,15.81
2022-09-21T10:54:54.906Z,15.81
2022-09-21T10:57:26.654Z,15.86
2022-09-21T10:59:55.111Z,15.93
2022-09-21T11:02:34.894Z,15.88
2022-09-21T11:05:10.738Z,15.90
2022-09-21T11:07:47.707Z,15.98
2022-09-21T11:10:22.249Z,16.05
2022-09-21T11:13:04.002Z,16.14
2022-09-21T11:15:43.681Z,16.25
2022-09-21T11:18:19.984Z,16.38
2022-09-21T11:20:53.082Z,16.49
2022-09-21T11:23:40.363Z,16.66
2022-09-21T11:26:14.006Z,16.75
2022-09-21T11:28:48.930Z,16.83
2022-09-21T11:31:55.667Z,16.85
2022-09-21T11:34:41.056Z,16.63
2022-09-21T11:37:21.015Z,16.62
2022-09-21T11:40:17.598Z,16.78
2022-09-21T11:42:58.105Z,16.93
2022-09-21T11:45:41.809Z,17.01
2022-09-21T11:48:23.304Z,17.07
2022-09-21T11:51:02.513Z,17.12
2022-09-21T11:53:43.859Z,17.11
2022-09-21T11:56:27.034Z,17.18
2022-09-21T11:59:07.042Z,17.27
2022-09-21T12:01:49.440Z,17.41
2022-09-21T12:04:42.617Z,17.56
2022-09-21T12:07:30.329Z,17.71
2022-09-21T12:10:36.669Z,17.84
2022-09-21T12:13:13.274Z,17.94
2022-09-21T12:15:50.058Z,18.04
2022-09-21T12:18:27.400Z,18.17
2022-09-21T12:21:02.747Z,18.20
2022-09-21T12:23:41.643Z,18.27
2022-09-21T12:26:13.199Z,18.29
2022-09-21T12:28:43.897Z,18.29
2022-09-21T12:31:19.848Z,18.31
2022-09-21T12:33:55.250Z,18.36
2022-09-21T12:36:30.728Z,18.45
2022-09-21T12:39:06.592Z,18.51
2022-09-21T12:41:40.984Z,18.52
2022-09-21T12:44:18.669Z,18.54
2022-09-21T12:46:53.621Z,18.58
2022-09-21T12:49:30.416Z,18.62
2022-09-21T12:52:07.105Z,18.63
2022-09-21T12:54:45.463Z,18.60
2022-09-21T12:57:49.318Z,18.53
2022-09-21T13:00:20.627Z,18.47
2022-09-21T13:02:54.945Z,18.45
2022-09-21T13:05:39.982Z,18.44
2022-09-21T13:08:13.476Z,18.49
2022-09-21T13:10:54.660Z,18.52
2022-09-21T13:13:31.724Z,18.48
2022-09-21T13:16:01.976Z,18.54
2022-09-21T13:18:36.238Z,18.62
2022-09-21T13:21:19.395Z,18.67
2022-09-21T13:23:54.755Z,18.64
2022-09-21T13:26:34.669Z,18.55
2022-09-21T13:29:25.822Z,18.49
2022-09-21T13:31:57.652Z,18.45
2022-09-21T13:34:32.303Z,18.47
2022-09-21T13:37:35.270Z,18.55
2022-09-21T13:40:36.050Z,18.55
2022-09-21T13:43:23.620Z,18.60
2022-09-21T13:45:59.181Z,18.64
2022-09-21T13:48:30.870Z,18.62
2022-09-21T13:51:10.178Z,18.61
2022-09-21T13:53:42.282Z,18.59
2022-09-21T13:56:20.560Z,18.63
2022-09-21T13:58:53.138Z,18.61
2022-09-21T14:01:45.894Z,18.57
2022-09-21T14:04:23.742Z,18.56
2022-09-21T14:06:54.236Z,18.57
2022-09-21T14:09:28.437Z,18.61
2022-09-21T14:12:00.206Z,18.59
2022-09-21T14:14:33.013Z,18.57
2022-09-21T14:17:02.531Z,18.50
2022-09-21T14:20:04.591Z,18.52
2022-09-21T14:22:41.422Z,18.59
2022-09-21T14:25:54.499Z,18.64
2022-09-21T14:28:35.525Z,18.66
2022-09-21T14:31:14.182Z,18.67
2022-09-21T14:33:48.148Z,18.65
2022-09-21T14:36:20.763Z,18.66
2022-09-21T14:38:54.969Z,18.60
2022-09-21T14:41:27.165Z,18.56
2022-09-21T14:43:56.824Z,18.56
2022-09-21T14:46:51.452Z,18.49
2022-09-21T14:49:34.878Z,18.44
2022-09-21T14:52:19.040Z,18.47
2022-09-21T14:55:03.205Z,18.46
2022-09-21T14:57:51.339Z,18.46
2022-09-21T15:00:23.319Z,18.39
2022-09-21T15:03:10.041Z,18.28
2022-09-21T15:05:41.528Z,18.17
2022-09-21T15:08:59.745Z,18.04
2022-09-21T15:11:31.688Z,17.95
2022-09-21T15:14:19.991Z,17.97
2022-09-21T15:16:51.009Z,18.00
2022-09-21T15:19:25.006Z,17.99
2022-09-21T15:21:54.926Z,17.97
2022-09-21T15:24:27.851Z,17.89
2022-09-21T15:27:04.104Z,17.83
2022-09-21T15:29:34.882Z,17.77
2022-09-21T15:32:03.980Z,17.72
2022-09-21T15:34:35.328Z,17.66
2022-09-21T15:37:08.632Z,17.64
2022-09-21T15:39:37.164Z,17.61
2022-09-21T15:42:22.749Z,17.63
2022-09-21T15:45:11.188Z,17.63
2022-09-21T15:47:42.182Z,17.56
2022-09-21T15:50:14.627Z,17.45
2022-09-21T15:52:49.304Z,17.34
2022-09-21T15:55:21.543Z,17.30
2022-09-21T15:57:51.761Z,17.27
2022-09-21T16:00:26.862Z,17.21
2022-09-21T16:03:05.997Z,17.12
2022-09-21T16:05:44.089Z,17.06
2022-09-21T16:08:28.624Z,16.99
2022-09-21T16:11:27.014Z,16.88
2022-09-21T16:14:23.553Z,16.73
2022-09-21T16:17:21.660Z,16.61
2022-09-21T16:20:10.483Z,16.52
2022-09-21T16:22:41.111Z,16.48
2022-09-21T16:25:24.747Z,16.44
2022-09-21T16:27:55.976Z,16.42
2022-09-21T16:30:48.766Z,16.34
2022-09-21T16:33:41.064Z,16.28
2022-09-21T16:36:45.581Z,16.18
2022-09-21T16:39:17.199Z,16.10
2022-09-21T16:41:49.383Z,16.06
2022-09-21T16:44:23.008Z,16.00
2022-09-21T16:46:57.716Z,15.97
2022-09-21T16:49:31.237Z,15.91
2022-09-21T16:52:00.368Z,15.88
2022-09-21T16:54:29.189Z,15.78
2022-09-21T16:56:59.803Z,15.71
2022-09-21T16:59:28.906Z,15.66
2022-09-21T17:01:59.091Z,15.61
2022-09-21T17:04:31.946Z,15.54
2022-09-21T17:07:00.815Z,15.46
2022-09-21T17:09:35.031Z,15.41
2022-09-21T17:12:06.212Z,15.35
2022-09-21T17:14:42.967Z,15.30
2022-09-21T17:17:17.595Z,15.22
2022-09-21T17:19:50.037Z,15.13
2022-09-21T17:22:19.318Z,15.04
2022-09-21T17:24:51.813Z,14.95
2022-09-21T17:27:22.687Z,14.91
2022-09-21T17:29:53.740Z,14.87
2022-09-21T17:32:24.250Z,14.82
2022-09-21T17:34:58.686Z,14.76
2022-09-21T17:37:27.199Z,14.70
2022-09-21T17:39:55.634Z,14.63
2022-09-21T17:42:25.790Z,14.57
2022-09-21T17:45:12.453Z,14.45
2022-09-21T17:47:41.994Z,14.35
2022-09-21T17:50:22.950Z,14.30
2022-09-21T17:53:17.898Z,14.24
2022-09-21T17:55:54.420Z,14.17
2022-09-21T17:58:44.544Z,14.10
2022-09-21T18:01:28.337Z,14.03
2022-09-21T18:03:57.542Z,13.99
2022-09-21T18:06:27.878Z,13.97
2022-09-21T18:08:57.419Z,13.93
2022-09-21T18:11:51.094Z,13.90
2022-09-21T18:14:33.035Z,13.87
2022-09-21T18:17:19.990Z,13.77
2022-09-21T18:20:03.719Z,13.64
2022-09-21T18:22:43.009Z,13.49
2022-09-21T18:25:16.379Z,13.32
2022-09-21T18:27:48.591Z,13.13
2022-09-21T18:30:18.614Z,13.00
2022-09-21T18:32:58.993Z,12.98
2022-09-21T18:35:49.845Z,13.05
2022-09-21T18:38:28.403Z,13.08
2022-09-21T18:41:13.332Z,13.10
2022-09-21T18:44:05.171Z,13.11
2022-09-21T18:46:43.443Z,12.99
2022-09-21T18:49:23.800Z,12.85
2022-09-21T18:51:58.719Z,12.76
2022-09-21T18:54:29.711Z,12.72
2022-09-21T18:56:59.210Z,12.69
2022-09-21T18:59:31.707Z,12.69
2022-09-21T19:02:01.123Z,12.68
2022-09-21T19:04:30.140Z,12.66
2022-09-21T19:07:04.366Z,12.62
2022-09-21T19:09:45.471Z,12.57
2022-09-21T19:12:23.900Z,12.59
2022-09-21T19:15:12.321Z,12.58
2022-09-21T19:17:53.521Z,12.48
2022-09-21T19:20:36.191Z,12.35
2022-09-21T19:23:13.317Z,12.26
2022-09-21T19:25:49.474Z,12.21
2022-09-21T19:28:46.800Z,12.19
2022-09-21T19:31:19.479Z,12.20
2022-09-21T19:33:50.724Z,12.22
2022-09-21T19:36:20.475Z,12.24
2022-09-21T19:38:49.311Z,12.27
2022-09-21T19:41:38.156Z,12.21
2022-09-21T19:44:32.554Z,11.99
2022-09-21T19:47:08.900Z,11.78
2022-09-21T19:49:46.699Z,11.70
2022-09-21T19:52:17.948Z,11.68
2022-09-21T19:55:04.668Z,11.62
2022-09-21T19:57:52.824Z,11.61
2022-09-21T20:00:22.777Z,11.61
2022-09-21T20:03:02.537Z,11.55
2022-09-21T20:05:40.232Z,11.47
2022-09-21T20:08:18.197Z,11.47
2022-09-21T20:11:01.830Z,11.41
2022-09-21T20:13:44.968Z,11.25
2022-09-21T20:16:28.652Z,11.10
2022-09-21T20:19:03.783Z,11.18
2022-09-21T20:21:39.435Z,11.25
2022-09-21T20:24:19.219Z,11.31
2022-09-21T20:26:50.766Z,11.20
2022-09-21T20:29:21.857Z,11.03
2022-09-21T20:31:52.273Z,10.92
2022-09-21T20:34:21.495Z,10.72
2022-09-21T20:36:49.924Z,10.62
2022-09-21T20:39:18.239Z,10.69
2022-09-21T20:41:46.568Z,10.64
2022-09-21T20:44:15.436Z,10.61
2022-09-21T20:46:45.123Z,10.69
2022-09-21T20:49:15.307Z,10.73
2022-09-21T20:51:43.665Z,10.75
2022-09-21T20:54:12.212Z,10.79
2022-09-21T20:56:40.873Z,10.86
2022-09-21T20:59:09.379Z,10.82
2022-09-21T21:01:37.786Z,10.79
2022-09-21T21:04:07.636Z,10.61
2022-09-21T21:06:37.692Z,10.54
2022-09-21T21:09:06.102Z,10.65
2022-09-21T21:11:34.557Z,10.69
2022-09-21T21:14:03.567Z,10.58
2022-09-21T21:16:32.189Z,10.41
2022-09-21T21:19:00.851Z,10.42
2022-09-21T21:21:30.633Z,10.33
2022-09-21T21:24:16.518Z,10.20
2022-09-21T21:27:01.160Z,10.00
2022-09-21T21:29:30.712Z,9.90
2022-09-21T21:32:00.025Z,9.98
2022-09-21T21:34:28.894Z,10.13
2022-09-21T21:36:58.982Z,10.16
2022-09-21T21:39:27.383Z,10.03
2022-09-21T21:41:55.707Z,9.89
2022-09-21T21:44:24.138Z,9.77
2022-09-21T21:46:53.342Z,9.56
2022-09-21T21:49:22.156Z,9.42
2022-09-21T21:51:51.028Z,9.32
2022-09-21T21:54:23.311Z,9.30
2022-09-21T21:56:53.622Z,9.27
2022-09-21T21:59:22.382Z,9.31
2022-09-21T22:01:51.018Z,9.39
2022-09-21T22:04:21.645Z,9.45
2022-09-21T22:06:52.813Z,9.41
2022-09-21T22:09:23.174Z,9.39
2022-09-21T22:11:51.515Z,9.36
2022-09-21T22:14:19.865Z,9.35
2022-09-21T22:16:48.220Z,9.35
2022-09-21T22:19:16.604Z,9.45
2022-09-21T22:21:51.728Z,9.50
2022-09-21T22:24:23.701Z,9.48
2022-09-21T22:26:52.041Z,9.49
2022-09-21T22:29:20.329Z,9.46
2022-09-21T22:31:50.247Z,9.42
2022-09-21T22:34:18.961Z,9.25
2022-09-21T22:36:47.304Z,9.09
2022-09-21T22:39:15.621Z,8.97
2022-09-21T22:41:45.308Z,8.97
2022-09-21T22:44:13.961Z,9.09
2022-09-21T22:46:42.428Z,9.18
2022-09-21T22:49:10.722Z,9.15
2022-09-21T22:51:39.040Z,9.09
2022-09-21T22:54:07.755Z,9.03
2022-09-21T22:56:36.674Z,9.07
2022-09-21T22:59:07.054Z,9.12
2022-09-21T23:01:37.403Z,9.14
2022-09-21T23:04:08.065Z,9.10
2022-09-21T23:06:39.075Z,9.07
2022-09-21T23:09:09.374Z,9.07
2022-09-21T23:11:41.974Z,9.01
2022-09-21T23:14:12.890Z,8.92
2022-09-21T23:16:41.358Z,8.93
2022-09-21T23:19:15.393Z,8.87
2022-09-21T23:21:45.570Z,8.81
2022-09-21T23:24:14.105Z,8.81
2022-09-21T23:26:43.528Z,8.86
2022-09-21T23:29:15.173Z,8.86
2022-09-21T23:31:45.717Z,8.76
2022-09-21T23:34:16.002Z,8.63
2022-09-21T23:36:45.805Z,8.47
2022-09-21T23:39:15.901Z,8.41
2022-09-21T23:41:44.806Z,8.42
2022-09-21T23:44:14.973Z,8.41
2022-09-21T23:46:43.460Z,8.35
2022-09-21T23:49:11.981Z,8.25
2022-09-21T23:51:40.806Z,8.19
2022-09-21T23:54:09.462Z,8.16
2022-09-21T23:56:37.923Z,8.16
2022-09-21T23:59:06.495Z,8.17
